CW0343 Mareeba AU current weather conditions

sailwx.info

Wind from 100 at 1 knots gusting 6

Air temperature 22.2° C
Dewpoint 20.1° C

Last reported at 2019-Dec-09 12:53 UTC.
Time now 2019-Dec-09 13:31 UTC

Location: S 17°01' E 145°20'.
View on Google Maps.

See reports from other nearby stations

  
Tides and Currents Weather Stations Pressure Air Temp Water Temp Dewpoint Dewpoint Depression Visibility Wind Speed Wind Dir Waves Ship Positions
date/time (UTC)wind fromknots sea level pressurealtimeterstation pressurevisibilityair tempwater tempwave heightnotes
2019-Dec-09 12:53 100 1 gusting 6 22.2
2019-Dec-09 12:43 084 1 gusting 5 22.2
2019-Dec-09 12:23 144 1 gusting 5 22.2
2019-Dec-09 12:03 123 0 gusting 2 22.2
2019-Dec-09 11:53 148 1 gusting 2 22.8
2019-Dec-09 11:43 121 2 gusting 5 22.8
2019-Dec-09 11:33 169 1 gusting 4 22.8
2019-Dec-09 11:23 131 1 gusting 6 22.8
2019-Dec-09 11:13 138 2 gusting 6 22.8
2019-Dec-09 11:03 138 3 gusting 6 22.8
2019-Dec-09 10:53 159 2 gusting 7 22.8
2019-Dec-09 10:43 157 3 gusting 10 22.8
2019-Dec-09 10:33 161 5 gusting 8 22.8
2019-Dec-09 10:13 128 5 gusting 8 23.3
2019-Dec-09 09:53 136 5 gusting 8 23.3
2019-Dec-09 09:33 144 2 gusting 6 23.3
2019-Dec-09 09:23 144 3 gusting 6 23.3
2019-Dec-09 09:13 126 2 gusting 6 23.3
2019-Dec-09 08:33 074 5 gusting 10 24.4
2019-Dec-09 08:03 123 6 gusting 10 25.6
2019-Dec-09 07:53 101 4 gusting 10 25.6
2019-Dec-09 07:33 137 8 gusting 13 27.2
2019-Dec-09 07:23 119 5 gusting 10 27.8
2019-Dec-09 07:13 096 5 gusting 12 28.3
2019-Dec-09 07:03 155 6 gusting 12 28.3
2019-Dec-09 06:33 152 6 gusting 12 27.8
2019-Dec-09 06:13 074 9 gusting 14 27.8
2019-Dec-09 06:03 138 7 gusting 10 28.3
2019-Dec-09 05:53 086 6 gusting 13 28.3
2019-Dec-09 05:33 030 6 gusting 12 29.4
2019-Dec-09 05:23 074 6 gusting 13 29.4
2019-Dec-09 04:43 036 8 gusting 15 30.0
2019-Dec-09 04:13 061 7 gusting 19 28.9
2019-Dec-09 04:03 062 10 gusting 15 30.0
2019-Dec-09 03:53 088 8 gusting 13 30.0
2019-Dec-09 03:13 104 9 gusting 17 30.0
2019-Dec-09 03:03 076 6 gusting 13 30.6
2019-Dec-09 02:53 086 9 gusting 15 31.1
2019-Dec-09 02:43 059 8 gusting 15 31.1
2019-Dec-09 02:13 046 9 gusting 15 30.6
2019-Dec-09 02:03 067 6 gusting 14 30.6
2019-Dec-09 01:43 074 5 gusting 12 29.4
2019-Dec-09 01:33 123 8 gusting 17 29.4
2019-Dec-09 01:23 098 5 gusting 11 29.4
2019-Dec-09 01:13 118 6 gusting 10 30.0
2019-Dec-09 01:03 159 4 gusting 10 28.9
2019-Dec-09 00:43 141 6 gusting 12 28.9
2019-Dec-09 00:33 103 4 gusting 10 28.9
2019-Dec-09 00:13 128 5 gusting 12 28.3
2019-Dec-08 23:53 160 5 gusting 10 27.8
2019-Dec-08 23:43 032 1 gusting 8 27.2
2019-Dec-08 22:53 164 4 gusting 10 25.6
2019-Dec-08 22:43 119 6 gusting 10 25.0
2019-Dec-08 22:33 157 6 gusting 12 24.4
2019-Dec-08 22:13 082 6 gusting 10 23.9
2019-Dec-08 22:03 105 2 gusting 6 23.3
2019-Dec-08 21:53 068 4 gusting 10 22.8
2019-Dec-08 21:43 097 2 gusting 6 22.2
2019-Dec-08 21:33 102 2 gusting 5 22.2
2019-Dec-08 21:23 115 1 gusting 5 21.7
2019-Dec-08 21:13 144 1 gusting 4 21.1
2019-Dec-08 20:23 146 0 gusting 2 18.9
2019-Dec-08 20:13 114 0 gusting 2 18.9
2019-Dec-08 20:03 125 1 gusting 2 18.3
2019-Dec-08 19:53 074 17.2
2019-Dec-08 19:43 074 16.7
2019-Dec-08 19:33 074 17.2
2019-Dec-08 19:23 074 17.2
2019-Dec-08 18:53 074 18.3
2019-Dec-08 18:23 074 0 gusting 2 17.8
2019-Dec-08 18:13 074 17.8
2019-Dec-08 18:03 074 17.8
2019-Dec-08 17:53 074 17.8
2019-Dec-08 17:43 074 17.8
2019-Dec-08 17:33 074 0 gusting 2 17.8
2019-Dec-08 17:23 074 1 gusting 2 17.8
2019-Dec-08 17:13 074 1 gusting 2 17.8
2019-Dec-08 16:53 074 0 gusting 2 18.3
2019-Dec-08 16:43 072 1 gusting 6 18.3
2019-Dec-08 16:33 080 18.3
2019-Dec-08 16:23 080 18.3
2019-Dec-08 16:13 080 18.3
2019-Dec-08 15:53 080 17.8
2019-Dec-08 15:43 080 18.3
2019-Dec-08 15:23 080 18.3
2019-Dec-08 14:53 080 18.9
2019-Dec-08 14:43 080 18.9
2019-Dec-08 14:23 080 18.9
2019-Dec-08 14:03 080 19.4
2019-Dec-08 13:53 080 19.4
2019-Dec-08 13:23 083 0 gusting 4 20.0
2019-Dec-08 13:13 065 20.0
2019-Dec-08 13:03 065 20.6
2019-Dec-08 12:43 065 20.6
2019-Dec-08 12:23 065 21.1
2019-Dec-08 11:53 065 21.1
2019-Dec-08 11:43 065 21.7
2019-Dec-08 11:33 065 1 gusting 5 21.7
2019-Dec-08 11:23 082 1 gusting 2 21.7
2019-Dec-08 11:13 082 0 gusting 2 22.2
2019-Dec-08 10:53 080 1 gusting 2 22.2
2019-Dec-08 10:43 048 22.2
2019-Dec-08 10:33 048 1 gusting 2 22.2
2019-Dec-08 10:13 048 22.8
2019-Dec-08 09:53 031 1 gusting 2 22.8
2019-Dec-08 09:43 005 1 gusting 2 23.3
2019-Dec-08 09:33 036 1 gusting 4 23.3
2019-Dec-08 08:43 035 4 gusting 8 25.0
2019-Dec-08 08:33 043 7 gusting 12 25.0
2019-Dec-08 08:13 054 7 gusting 12 26.1
2019-Dec-08 07:43 052 7 gusting 13 27.8
2019-Dec-08 07:33 028 8 gusting 13 28.3
2019-Dec-08 07:23 044 7 gusting 12 28.3
2019-Dec-08 06:53 061 6 gusting 13 29.4
2019-Dec-08 06:23 034 8 gusting 15 29.4
2019-Dec-08 06:13 059 10 gusting 17 30.0
2019-Dec-08 05:53 082 10 gusting 17 30.6
2019-Dec-08 05:43 090 8 gusting 17 30.6
2019-Dec-08 05:33 028 7 gusting 15 30.6
2019-Dec-08 05:23 054 11 gusting 15 31.1
2019-Dec-08 05:13 053 9 gusting 15 31.1
2019-Dec-08 04:33 061 8 gusting 13 32.2
2019-Dec-08 04:23 069 9 gusting 14 32.2
2019-Dec-08 03:43 080 5 gusting 15 33.3
2019-Dec-08 03:23 128 6 gusting 10 34.4
2019-Dec-08 02:43 074 4 gusting 8 32.8
2019-Dec-08 02:23 348 2 gusting 5 31.7
2019-Dec-08 02:13 068 4 gusting 12 31.7
2019-Dec-08 01:53 088 4 gusting 7 31.7
2019-Dec-08 01:43 150 4 gusting 11 31.1
2019-Dec-08 01:33 321 3 gusting 7 30.6
2019-Dec-08 01:23 239 2 gusting 7 30.6
2019-Dec-08 01:13 059 4 gusting 6 30.6
2019-Dec-08 01:03 317 2 gusting 7 30.6
2019-Dec-08 00:53 078 2 gusting 6 30.0
2019-Dec-08 00:43 040 3 gusting 8 29.4
2019-Dec-08 00:33 205 0 gusting 6 29.4
2019-Dec-08 00:23 005 1 gusting 6 28.3
2019-Dec-07 23:43 070 2 gusting 6 27.2
2019-Dec-07 23:33 016 1 gusting 6 26.1
2019-Dec-07 23:03 078 5 gusting 10 25.6
2019-Dec-07 22:43 337 2 gusting 5 24.4
2019-Dec-07 22:03 332 21.7
2019-Dec-07 21:53 224 21.7
2019-Dec-07 21:43 224 21.7
2019-Dec-07 21:23 224 21.1
2019-Dec-07 20:53 210 1 gusting 4 21.1
2019-Dec-07 20:23 060 20.0
2019-Dec-07 20:13 060 19.4
2019-Dec-07 19:53 060 19.4
2019-Dec-07 19:43 060 20.0
2019-Dec-07 19:33 060 20.0
2019-Dec-07 19:23 060 20.0
2019-Dec-07 19:03 060 20.0
2019-Dec-07 18:53 060 20.0
2019-Dec-07 18:13 063 2 gusting 5 20.6
2019-Dec-07 18:03 061 1 gusting 4 20.6
2019-Dec-07 17:43 040 2 gusting 4 20.6
2019-Dec-07 17:33 038 1 gusting 5 20.6
2019-Dec-07 17:13 050 2 gusting 5 20.6
2019-Dec-07 16:53 049 2 gusting 5 20.6
2019-Dec-07 16:43 048 3 gusting 6 20.6
2019-Dec-07 16:23 052 3 gusting 6 20.6
2019-Dec-07 15:53 031 1 gusting 5 21.1
2019-Dec-07 15:33 032 2 gusting 4 21.1
2019-Dec-07 15:13 040 1 gusting 2 21.1
2019-Dec-07 15:03 044 1 gusting 5 21.1
2019-Dec-07 14:53 040 2 gusting 7 21.1
2019-Dec-07 14:33 040 3 gusting 5 21.1
2019-Dec-07 13:53 015 3 gusting 7 21.1
2019-Dec-07 13:43 039 4 gusting 5 21.7
2019-Dec-07 13:33 055 3 gusting 6 21.7
2019-Dec-07 13:03 031 4 gusting 7 21.7